| time (UTC) | temp F | wind direction | speed knots | gust knots | rain 1hr in | rain 24hr in | rain mn in | humidity % | barometer mb |
| 20260506035842 | 42 | 37 | 0.0 | 3.5 | 0.01 | 0.14 | 0.14 | 89 | 1015.2 |
| 20260506035329 | 42 | 39 | 0.9 | 6.1 | 0.02 | 0.14 | 0.14 | 89 | 1015.1 |
| 20260506034834 | 42 | 63 | 0.9 | 6.1 | 0.04 | 0.14 | 0.14 | 89 | 1015.1 |
| 20260506034339 | 42 | 44 | 0.9 | 3.5 | 0.06 | 0.14 | 0.14 | 88 | 1015.3 |
| 20260506033828 | 42 | 307 | 0.0 | 3.5 | 0.07 | 0.14 | 0.14 | 88 | 1015.4 |
| 20260506033333 | 42 | 298 | 0.0 | 5.2 | 0.07 | 0.14 | 0.14 | 87 | 1015.4 |
| 20260506032837 | 43 | 337 | 2.6 | 5.2 | 0.07 | 0.14 | 0.14 | 87 | 1015.5 |
| 20260506032342 | 43 | 308 | 1.7 | 7.8 | 0.07 | 0.14 | 0.14 | 87 | 1015.4 |
| 20260506031827 | 43 | 338 | 4.3 | 7.8 | 0.07 | 0.14 | 0.14 | 87 | 1015.4 |
| 20260506031333 | 43 | 302 | 1.7 | 7.8 | 0.06 | 0.13 | 0.13 | 87 | 1015.4 |
| 20260506030838 | 43 | 313 | 3.5 | 7.8 | 0.06 | 0.13 | 0.13 | 86 | 1015.2 |
| 20260506030327 | 43 | 296 | 3.5 | 7.0 | 0.06 | 0.13 | 0.13 | 85 | 1015.0 |
| 20260506025832 | 44 | 302 | 2.6 | 9.6 | 0.06 | 0.13 | 0.13 | 84 | 1015.0 |
| 20260506025337 | 44 | 309 | 4.3 | 9.6 | 0.05 | 0.12 | 0.12 | 83 | 1015.1 |
| 20260506024826 | 45 | 244 | 1.7 | 7.0 | 0.03 | 0.10 | 0.10 | 83 | 1015.2 |
| 20260506024330 | 45 | 271 | 0.9 | 5.2 | 0.01 | 0.08 | 0.08 | 83 | 1014.6 |
| 20260506023835 | 45 | 291 | 2.6 | 5.2 | 0.00 | 0.07 | 0.07 | 82 | 1013.4 |
| 20260506023341 | 45 | 337 | 0.9 | 5.2 | 0.01 | 0.07 | 0.07 | 82 | 1013.1 |
| 20260506022827 | 45 | 341 | 2.6 | 6.1 | 0.02 | 0.07 | 0.07 | 82 | 1013.2 |
| 20260506022332 | 45 | 317 | 0.9 | 6.1 | 0.06 | 0.07 | 0.07 | 84 | 1013.0 |
| 20260506021837 | 45 | 345 | 0.9 | 2.6 | 0.07 | 0.07 | 0.07 | 85 | 1013.0 |
| 20260506021342 | 45 | 345 | 0.0 | 2.6 | 0.07 | 0.07 | 0.07 | 85 | 1013.2 |
| 20260506020828 | 45 | 344 | 0.0 | 3.5 | 0.07 | 0.07 | 0.07 | 84 | 1013.2 |
| 20260506020336 | 45 | 344 | 1.7 | 6.1 | 0.07 | 0.07 | 0.07 | 83 | 1013.3 |
| 20260506015840 | 45 | 344 | 0.0 | 6.1 | 0.07 | 0.07 | 0.07 | 82 | 1013.1 |
| 20260506015330 | 45 | 308 | 1.7 | 6.1 | 0.07 | 0.07 | 0.07 | 82 | 1013.1 |
| 20260506014835 | 45 | 311 | 1.7 | 8.7 | 0.07 | 0.07 | 0.07 | 81 | 1012.9 |
| 20260506014341 | 46 | 306 | 4.3 | 11.3 | 0.07 | 0.07 | 0.07 | 80 | 1012.8 |
| 20260506013826 | 46 | 254 | 4.3 | 11.3 | 0.07 | 0.07 | 0.07 | 78 | 1013.3 |
| 20260506013335 | 48 | 221 | 4.3 | 20.0 | 0.06 | 0.06 | 0.06 | 74 | 1013.6 |
| 20260506012840 | 51 | 257 | 7.8 | 20.0 | 0.05 | 0.05 | 0.05 | 63 | 1013.5 |
| 20260506012327 | 54 | 194 | 2.6 | 8.7 | 0.01 | 0.01 | 0.01 | 54 | 1012.7 |
| 20260506011835 | 55 | 234 | 3.5 | 7.8 | 0.00 | 0.00 | 0.00 | 51 | 1012.1 |
| 20260506011343 | 55 | 238 | 0.9 | 4.3 | 0.00 | 0.00 | 0.00 | 47 | 1011.6 |
| 20260506010832 | 55 | 202 | 0.0 | 4.3 | 0.00 | 0.00 | 0.00 | 47 | 1011.4 |
| 20260506010337 | 55 | 250 | 1.7 | 7.8 | 0.00 | 0.00 | 0.00 | 46 | 1011.7 |
| 20260506005842 | 55 | 229 | 0.9 | 7.8 | 0.00 | 0.00 | 0.00 | 46 | 1011.7 |
| 20260506005327 | 56 | 257 | 0.9 | 7.8 | 0.00 | 0.00 | 0.00 | 45 | 1011.7 |
| 20260506004832 | 56 | 221 | 1.7 | 7.8 | 0.00 | 0.00 | 0.00 | 43 | 1011.6 |
| 20260506004337 | 57 | 208 | 3.5 | 9.6 | 0.00 | 0.00 | 0.00 | 42 | 1011.7 |
| 20260506003843 | 58 | 259 | 3.5 | 8.7 | 0.00 | 0.00 | 0.00 | 42 | 1011.7 |
| 20260506003328 | 58 | 245 | 1.7 | 9.6 | 0.00 | 0.00 | 0.00 | 43 | 1011.6 |
| 20260506002833 | 58 | 212 | 1.7 | 9.6 | 0.00 | 0.00 | 0.00 | 44 | 1011.7 |
| 20260506002339 | 58 | 184 | 3.5 | 7.8 | 0.00 | 0.00 | 0.00 | 42 | 1011.6 |
| 20260506001828 | 58 | 230 | 3.5 | 8.7 | 0.00 | 0.00 | 0.00 | 43 | 1011.7 |
| 20260506001334 | 58 | 243 | 2.6 | 8.7 | 0.00 | 0.00 | 0.00 | 43 | 1011.6 |
| 20260506000838 | 58 | 229 | 3.5 | 9.6 | 0.00 | 0.00 | 0.00 | 42 | 1011.6 |
| 20260506000344 | 58 | 215 | 1.7 | 11.3 | 0.00 | 0.00 | 0.00 | 43 | 1011.7 |
| 20260505235829 | 58 | 182 | 3.5 | 13.0 | 0.00 | 0.00 | 0.00 | 43 | 1011.6 |
| 20260505235334 | 58 | 256 | 3.5 | 13.0 | 0.00 | 0.00 | 0.00 | 43 | 1011.6 |
| 20260505234840 | 58 | 235 | 5.2 | 11.3 | 0.00 | 0.00 | 0.00 | 43 | 1011.6 |
| 20260505234325 | 58 | 195 | 3.5 | 10.4 | 0.00 | 0.00 | 0.00 | 44 | 1011.5 |
| 20260505233830 | 58 | 184 | 5.2 | 13.0 | 0.00 | 0.00 | 0.00 | 45 | 1011.5 |
| 20260505233335 | 57 | 187 | 5.2 | 12.2 | 0.00 | 0.00 | 0.00 | 47 | 1011.5 |
| 20260505232840 | 56 | 207 | 3.5 | 13.9 | 0.00 | 0.00 | 0.00 | 46 | 1011.6 |
| 20260505232329 | 56 | 181 | 4.3 | 15.6 | 0.00 | 0.00 | 0.00 | 46 | 1011.6 |
| 20260505231834 | 56 | 200 | 6.1 | 15.6 | 0.00 | 0.00 | 0.00 | 46 | 1011.7 |
| 20260505231339 | 57 | 211 | 7.8 | 15.6 | 0.00 | 0.00 | 0.00 | 44 | 1011.7 |
| 20260505230843 | 57 | 170 | 6.1 | 14.8 | 0.00 | 0.00 | 0.00 | 44 | 1011.6 |
| 20260505230328 | 57 | 180 | 7.0 | 13.9 | 0.00 | 0.00 | 0.00 | 44 | 1011.4 |
| 20260505225833 | 57 | 185 | 4.3 | 11.3 | 0.00 | 0.00 | 0.00 | 45 | 1011.4 |
| 20260505225339 | 57 | 185 | 6.1 | 13.9 | 0.00 | 0.00 | 0.00 | 45 | 1011.6 |
| 20260505224824 | 57 | 217 | 6.1 | 13.9 | 0.00 | 0.00 | 0.00 | 45 | 1011.4 |
| 20260505224330 | 58 | 200 | 5.2 | 13.9 | 0.00 | 0.00 | 0.00 | 44 | 1011.4 |
| 20260505223835 | 58 | 172 | 3.5 | 13.9 | 0.00 | 0.00 | 0.00 | 44 | 1011.5 |
| 20260505223323 | 58 | 204 | 6.1 | 13.0 | 0.00 | 0.00 | 0.00 | 43 | 1011.5 |
| 20260505222831 | 58 | 187 | 6.1 | 16.5 | 0.00 | 0.00 | 0.00 | 43 | 1011.5 |
| 20260505222336 | 59 | 179 | 5.2 | 9.6 | 0.00 | 0.00 | 0.00 | 42 | 1011.6 |
| 20260505221842 | 60 | 205 | 3.5 | 9.6 | 0.00 | 0.00 | 0.00 | 40 | 1011.6 |
| 20260505221327 | 60 | 254 | 1.7 | 13.0 | 0.00 | 0.00 | 0.00 | 41 | 1011.5 |
| 20260505220831 | 60 | 207 | 6.1 | 12.2 | 0.00 | 0.00 | 0.00 | 40 | 1011.4 |
| 20260505220336 | 60 | 201 | 3.5 | 9.6 | 0.00 | 0.00 | 0.00 | 40 | 1011.5 |
| 20260505215841 | 60 | 269 | 2.6 | 9.6 | 0.00 | 0.00 | 0.00 | 41 | 1011.5 |
| 20260505215326 | 60 | 224 | 4.3 | 9.6 | 0.00 | 0.00 | 0.00 | 40 | 1011.6 |
| 20260505214832 | 61 | 203 | 3.5 | 8.7 | 0.00 | 0.00 | 0.00 | 40 | 1011.6 |
| 20260505214342 | 61 | 231 | 0.9 | 11.3 | 0.00 | 0.00 | 0.00 | 41 | 1011.6 |
| 20260505213827 | 61 | 200 | 4.3 | 11.3 | 0.00 | 0.00 | 0.00 | 41 | 1011.9 |
| 20260505213333 | 60 | 155 | 2.6 | 11.3 | 0.00 | 0.00 | 0.00 | 42 | 1011.9 |
| 20260505212838 | 60 | 216 | 6.1 | 11.3 | 0.00 | 0.00 | 0.00 | 41 | 1012.2 |
| 20260505212343 | 61 | 253 | 3.5 | 9.6 | 0.00 | 0.00 | 0.00 | 40 | 1012.2 |
| 20260505211828 | 60 | 292 | 4.3 | 11.3 | 0.00 | 0.00 | 0.00 | 43 | 1012.2 |
| 20260505211336 | 60 | 237 | 2.6 | 11.3 | 0.00 | 0.00 | 0.00 | 43 | 1012.2 |
| 20260505210842 | 59 | 212 | 4.3 | 11.3 | 0.00 | 0.00 | 0.00 | 43 | 1012.4 |
| 20260505210326 | 59 | 257 | 4.3 | 11.3 | 0.00 | 0.00 | 0.00 | 44 | 1012.4 |
| 20260505205832 | 59 | 207 | 3.5 | 13.0 | 0.00 | 0.00 | 0.00 | 44 | 1012.4 |
| 20260505205324 | 58 | 211 | 6.1 | 13.0 | 0.00 | 0.00 | 0.00 | 45 | 1012.5 |
| 20260505204833 | 58 | 270 | 3.5 | 7.8 | 0.00 | 0.00 | 0.00 | 47 | 1012.8 |
| 20260505204338 | 58 | 181 | 5.2 | 10.4 | 0.00 | 0.00 | 0.00 | 45 | 1012.8 |
| 20260505203826 | 59 | 231 | 4.3 | 10.4 | 0.00 | 0.00 | 0.00 | 43 | 1013.0 |
| 20260505203331 | 59 | 221 | 0.9 | 9.6 | 0.00 | 0.00 | 0.00 | 44 | 1013.1 |
| 20260505202837 | 59 | 284 | 3.5 | 12.2 | 0.00 | 0.00 | 0.00 | 45 | 1013.1 |
| 20260505202323 | 59 | 209 | 3.5 | 12.2 | 0.00 | 0.00 | 0.00 | 45 | 1013.3 |
| 20260505201830 | 58 | 199 | 3.5 | 9.6 | 0.00 | 0.00 | 0.00 | 46 | 1013.3 |
| 20260505201336 | 58 | 211 | 3.5 | 11.3 | 0.00 | 0.00 | 0.00 | 48 | 1013.3 |
| 20260505200825 | 57 | 280 | 3.5 | 10.4 | 0.00 | 0.00 | 0.00 | 49 | 1013.2 |
| 20260505200330 | 56 | 182 | 3.5 | 10.4 | 0.00 | 0.00 | 0.00 | 50 | 1013.2 |
| 20260505195835 | 55 | 294 | 4.3 | 10.4 | 0.00 | 0.00 | 0.00 | 51 | 1013.2 |
| 20260505195341 | 55 | 249 | 4.3 | 10.4 | 0.00 | 0.00 | 0.00 | 52 | 1013.2 |
| 20260505194826 | 55 | 247 | 4.3 | 9.6 | 0.00 | 0.00 | 0.00 | 52 | 1013.1 |
| 20260505194334 | 55 | 202 | 4.3 | 13.0 | 0.00 | 0.00 | 0.00 | 55 | 1013.2 |
| 20260505193840 | 56 | 249 | 3.5 | 13.0 | 0.00 | 0.00 | 0.00 | 50 | 1013.4 |
| 20260505193328 | 57 | 246 | 1.7 | 9.6 | 0.00 | 0.00 | 0.00 | 48 | 1013.1 |
| 20260505192836 | 57 | 223 | 3.5 | 10.4 | 0.00 | 0.00 | 0.00 | 48 | 1013.1 |
| 20260505192341 | 57 | 248 | 2.6 | 12.2 | 0.00 | 0.00 | 0.00 | 47 | 1013.2 |
| 20260505191831 | 57 | 232 | 3.5 | 11.3 | 0.00 | 0.00 | 0.00 | 48 | 1013.2 |
| 20260505191336 | 57 | 208 | 1.7 | 10.4 | 0.00 | 0.00 | 0.00 | 48 | 1013.2 |
| 20260505190841 | 56 | 242 | 1.7 | 10.4 | 0.00 | 0.00 | 0.00 | 51 | 1013.2 |
| 20260505190326 | 55 | 257 | 1.7 | 6.1 | 0.00 | 0.00 | 0.00 | 53 | 1013.2 |
| 20260505185831 | 55 | 250 | 1.7 | 9.6 | 0.00 | 0.00 | 0.00 | 55 | 1013.2 |
| 20260505185336 | 56 | 199 | 4.3 | 10.4 | 0.00 | 0.00 | 0.00 | 51 | 1013.3 |
| 20260505184821 | 57 | 202 | 5.2 | 10.4 | 0.00 | 0.00 | 0.00 | 43 | 1013.2 |
| 20260505184330 | 57 | 190 | 2.6 | 6.1 | 0.00 | 0.00 | 0.00 | 43 | 1013.0 |
| 20260505183835 | 57 | 140 | 2.6 | 8.7 | 0.00 | 0.00 | 0.00 | 40 | 1013.0 |
| 20260505183340 | 57 | 158 | 3.5 | 8.7 | 0.00 | 0.00 | 0.00 | 40 | 1013.3 |
| 20260505182828 | 57 | 243 | 2.6 | 6.1 | 0.00 | 0.00 | 0.00 | 40 | 1013.1 |
| 20260505182333 | 57 | 189 | 2.6 | 7.8 | 0.00 | 0.00 | 0.00 | 39 | 1013.2 |
| 20260505181838 | 57 | 192 | 2.6 | 7.8 | 0.00 | 0.00 | 0.00 | 38 | 1013.1 |
| 20260505181326 | 57 | 186 | 4.3 | 7.0 | 0.00 | 0.00 | 0.00 | 39 | 1013.0 |
| 20260505180832 | 56 | 168 | 0.9 | 5.2 | 0.00 | 0.00 | 0.00 | 40 | 1013.1 |
| 20260505180337 | 56 | 178 | 0.9 | 7.0 | 0.00 | 0.00 | 0.00 | 40 | 1013.1 |
| 20260505175843 | 56 | 95 | 1.7 | 7.0 | 0.00 | 0.00 | 0.00 | 40 | 1013.2 |
| 20260505175328 | 55 | 163 | 1.7 | 6.1 | 0.00 | 0.00 | 0.00 | 40 | 1013.2 |
| 20260505174833 | 55 | 134 | 2.6 | 6.1 | 0.00 | 0.00 | 0.00 | 40 | 1013.4 |
| 20260505174338 | 55 | 172 | 1.7 | 4.3 | 0.00 | 0.00 | 0.00 | 40 | 1013.6 |
| 20260505173827 | 55 | 171 | 0.9 | 5.2 | 0.00 | 0.00 | 0.00 | 40 | 1013.6 |
| 20260505173332 | 56 | 198 | 2.6 | 5.2 | 0.00 | 0.00 | 0.00 | 39 | 1013.7 |
| 20260505172839 | 55 | 82 | 0.9 | 6.1 | 0.00 | 0.00 | 0.00 | 41 | 1013.6 |
| 20260505172327 | 55 | 81 | 1.7 | 6.1 | 0.00 | 0.00 | 0.00 | 40 | 1013.5 |
| 20260505171832 | 55 | 118 | 1.7 | 6.1 | 0.00 | 0.00 | 0.00 | 40 | 1013.6 |
| 20260505171337 | 55 | 150 | 2.6 | 8.7 | 0.00 | 0.00 | 0.00 | 41 | 1013.7 |
| 20260505170842 | 55 | 108 | 3.5 | 8.7 | 0.00 | 0.00 | 0.00 | 40 | 1013.7 |
| 20260505170327 | 54 | 92 | 2.6 | 6.1 | 0.00 | 0.00 | 0.00 | 41 | 1013.7 |
| 20260505165832 | 54 | 169 | 0.9 | 6.1 | 0.00 | 0.00 | 0.00 | 42 | 1013.8 |
| 20260505165337 | 54 | 149 | 1.7 | 7.0 | 0.00 | 0.00 | 0.00 | 41 | 1013.9 |
| 20260505164826 | 54 | 182 | 0.9 | 7.0 | 0.00 | 0.00 | 0.00 | 43 | 1014.0 |
| 20260505164334 | 54 | 199 | 3.5 | 7.0 | 0.00 | 0.00 | 0.00 | 42 | 1014.1 |
| 20260505163839 | 53 | 236 | 1.7 | 8.7 | 0.00 | 0.00 | 0.00 | 44 | 1014.1 |
| 20260505163324 | 53 | 223 | 2.6 | 8.7 | 0.00 | 0.00 | 0.00 | 43 | 1014.2 |
| 20260505162829 | 53 | 244 | 2.6 | 7.0 | 0.00 | 0.00 | 0.00 | 44 | 1014.2 |
| 20260505162338 | 53 | 232 | 2.6 | 7.0 | 0.00 | 0.00 | 0.00 | 44 | 1014.1 |
| 20260505161843 | 53 | 198 | 0.9 | 6.1 | 0.00 | 0.00 | 0.00 | 45 | 1014.2 |
| 20260505161329 | 52 | 214 | 0.9 | 7.0 | 0.00 | 0.00 | 0.00 | 46 | 1014.2 |
| 20260505160833 | 52 | 208 | 2.6 | 6.1 | 0.00 | 0.00 | 0.00 | 45 | 1014.4 |
| 20260505160339 | 52 | 248 | 1.7 | 6.1 | 0.00 | 0.00 | 0.00 | 45 | 1014.3 |
| 20260505153341 | 52 | 252 | 1.7 | 9.6 | 0.00 | 0.00 | 0.00 | 43 | 1014.4 |
| 20260505152826 | 52 | 202 | 3.5 | 10.4 | 0.00 | 0.00 | 0.00 | 46 | 1014.3 |
| 20260505152331 | 52 | 258 | 4.3 | 10.4 | 0.00 | 0.00 | 0.00 | 46 | 1014.3 |
| 20260505151836 | 53 | 246 | 3.5 | 8.7 | 0.00 | 0.00 | 0.00 | 46 | 1014.3 |
| 20260505151341 | 53 | 248 | 1.7 | 8.7 | 0.00 | 0.00 | 0.00 | 45 | 1014.3 |
| 20260505150830 | 53 | 237 | 1.7 | 7.0 | 0.00 | 0.00 | 0.00 | 44 | 1014.3 |
| 20260505150335 | 53 | 248 | 2.6 | 7.0 | 0.00 | 0.00 | 0.00 | 45 | 1014.3 |
| 20260505140331 | 54 | 268 | 2.6 | 7.0 | 0.00 | 0.00 | 0.00 | 42 | 1014.5 |
| 20260505124828 | 50 | 254 | 1.7 | 5.2 | 0.00 | 0.00 | 0.00 | 47 | 1014.5 |
| 20260505124334 | 49 | 256 | 0.9 | 5.2 | 0.00 | 0.00 | 0.00 | 46 | 1014.6 |
| 20260505123825 | 48 | 262 | 0.9 | 4.3 | 0.00 | 0.00 | 0.00 | 46 | 1014.6 |
| 20260505123331 | 48 | 271 | 0.9 | 1.7 | 0.00 | 0.00 | 0.00 | 47 | 1014.5 |
| 20260505122838 | 48 | 286 | 0.0 | 0.9 | 0.00 | 0.00 | 0.00 | 47 | 1014.5 |
| 20260505122323 | 48 | 286 | 0.0 | 0.0 | 0.00 | 0.00 | 0.00 | 46 | 1014.5 |
| 20260505121832 | 48 | 286 | 0.0 | 0.0 | 0.00 | 0.00 | 0.00 | 45 | 1014.3 |
| 20260505121338 | 49 | 286 | 0.0 | 0.0 | 0.00 | 0.00 | 0.00 | 44 | 1014.2 |
| 20260505120824 | 49 | 286 | 0.0 | 0.0 | 0.00 | 0.00 | 0.00 | 43 | 1014.2 |
| 20260505120330 | 49 | 286 | 0.0 | 0.0 | 0.00 | 0.00 | 0.00 | 43 | 1014.1 |
| 20260505115836 | 49 | 286 | 0.0 | 3.5 | 0.00 | 0.00 | 0.00 | 43 | 1014.0 |
| 20260505115326 | 49 | 286 | 0.9 | 3.5 | 0.00 | 0.00 | 0.00 | 42 | 1013.9 |
| 20260505114831 | 49 | 259 | 0.0 | 1.7 | 0.00 | 0.00 | 0.00 | 42 | 1014.0 |
| 20260505114338 | 50 | 259 | 0.0 | 3.5 | 0.00 | 0.00 | 0.00 | 42 | 1014.1 |
| 20260505113824 | 49 | 259 | 0.9 | 4.3 | 0.00 | 0.00 | 0.00 | 42 | 1014.2 |
| 20260505113331 | 49 | 248 | 0.9 | 4.3 | 0.00 | 0.00 | 0.00 | 42 | 1014.3 |
| 20260505112837 | 49 | 254 | 0.0 | 1.7 | 0.00 | 0.00 | 0.00 | 42 | 1014.3 |
| 20260505112322 | 50 | 254 | 0.0 | 0.0 | 0.00 | 0.00 | 0.00 | 42 | 1014.3 |
| 20260505111832 | 50 | 254 | 0.0 | 0.0 | 0.00 | 0.00 | 0.00 | 42 | 1014.1 |
| 20260505111337 | 50 | 254 | 0.0 | 0.0 | 0.00 | 0.00 | 0.00 | 41 | 1014.2 |
| 20260505110823 | 50 | 254 | 0.0 | 0.0 | 0.00 | 0.00 | 0.00 | 41 | 1014.2 |
| 20260505110336 | 50 | 254 | 0.0 | 0.0 | 0.00 | 0.00 | 0.00 | 41 | 1014.1 |
| 20260505101836 | 52 | 235 | 0.9 | 6.1 | 0.00 | 0.00 | 0.00 | 36 | 1013.8 |
| 20260505101326 | 52 | 243 | 0.0 | 6.1 | 0.00 | 0.00 | 0.00 | 36 | 1013.8 |
| 20260505100831 | 53 | 235 | 0.0 | 7.8 | 0.00 | 0.00 | 0.00 | 36 | 1013.8 |
| 20260505100337 | 53 | 250 | 0.9 | 7.8 | 0.00 | 0.00 | 0.00 | 35 | 1013.7 |
| 20260505095842 | 53 | 253 | 1.7 | 7.0 | 0.00 | 0.00 | 0.00 | 35 | 1013.8 |
| 20260505095328 | 53 | 226 | 1.7 | 5.2 | 0.00 | 0.00 | 0.00 | 36 | 1013.8 |
| 20260505094832 | 53 | 255 | 1.7 | 6.1 | 0.00 | 0.00 | 0.00 | 35 | 1013.9 |
| 20260505094338 | 53 | 258 | 0.9 | 6.1 | 0.00 | 0.00 | 0.00 | 36 | 1013.8 |
| 20260505093843 | 53 | 298 | 0.9 | 4.3 | 0.00 | 0.00 | 0.00 | 36 | 1013.8 |
| 20260505093329 | 53 | 269 | 0.9 | 3.5 | 0.00 | 0.00 | 0.00 | 38 | 1013.8 |
| 20260505092834 | 53 | 279 | 0.0 | 2.6 | 0.00 | 0.00 | 0.00 | 38 | 1013.8 |
| 20260505092327 | 53 | 279 | 0.9 | 2.6 | 0.00 | 0.00 | 0.00 | 37 | 1013.8 |
| 20260505091834 | 53 | 308 | 0.9 | 5.2 | 0.00 | 0.00 | 0.00 | 37 | 1013.9 |
| 20260505091340 | 53 | 312 | 0.0 | 5.2 | 0.00 | 0.00 | 0.00 | 36 | 1013.9 |
| 20260505090827 | 53 | 308 | 1.7 | 5.2 | 0.00 | 0.00 | 0.00 | 36 | 1014.1 |
| 20260505090337 | 53 | 317 | 0.9 | 5.2 | 0.00 | 0.00 | 0.00 | 35 | 1014.1 |
| 20260505085822 | 53 | 283 | 0.0 | 3.5 | 0.00 | 0.00 | 0.00 | 35 | 1014.0 |
| 20260505085331 | 53 | 283 | 0.0 | 2.6 | 0.00 | 0.00 | 0.00 | 35 | 1014.1 |
| 20260505084836 | 53 | 263 | 0.0 | 1.7 | 0.00 | 0.00 | 0.00 | 36 | 1014.1 |
| 20260505084325 | 53 | 263 | 0.0 | 0.9 | 0.00 | 0.00 | 0.00 | 36 | 1014.2 |
| 20260505083835 | 53 | 263 | 0.0 | 0.9 | 0.00 | 0.00 | 0.00 | 36 | 1014.3 |
| 20260505083342 | 53 | 263 | 0.0 | 0.0 | 0.00 | 0.00 | 0.00 | 36 | 1014.4 |
| 20260505082828 | 53 | 263 | 0.0 | 1.7 | 0.00 | 0.00 | 0.00 | 35 | 1014.5 |
| 20260505082333 | 54 | 263 | 0.0 | 1.7 | 0.00 | 0.00 | 0.00 | 35 | 1014.6 |
| 20260505081838 | 54 | 263 | 0.0 | 0.9 | 0.00 | 0.00 | 0.00 | 34 | 1014.9 |
| 20260505081323 | 54 | 263 | 0.0 | 2.6 | 0.00 | 0.00 | 0.00 | 34 | 1014.9 |
| 20260505080829 | 54 | 263 | 0.0 | 2.6 | 0.00 | 0.00 | 0.00 | 34 | 1014.9 |
| 20260505080334 | 54 | 268 | 0.0 | 0.9 | 0.00 | 0.00 | 0.00 | 34 | 1014.8 |
| 20260505075824 | 55 | 268 | 0.0 | 0.0 | 0.00 | 0.00 | 0.00 | 34 | 1014.7 |
| 20260505075330 | 55 | 268 | 0.0 | 0.0 | 0.00 | 0.00 | 0.00 | 33 | 1014.7 |
| 20260505074840 | 55 | 268 | 0.0 | 0.0 | 0.00 | 0.00 | 0.00 | 33 | 1014.8 |
| 20260505074325 | 56 | 268 | 0.0 | 0.0 | 0.00 | 0.00 | 0.00 | 31 | 1014.8 |
| 20260505073830 | 56 | 268 | 0.0 | 1.7 | 0.00 | 0.00 | 0.00 | 31 | 1014.8 |
| 20260505073338 | 56 | 268 | 0.0 | 1.7 | 0.00 | 0.00 | 0.00 | 31 | 1014.6 |
| 20260505072843 | 56 | 268 | 0.0 | 2.6 | 0.00 | 0.00 | 0.00 | 30 | 1014.5 |
| 20260505072328 | 56 | 271 | 0.0 | 2.6 | 0.00 | 0.00 | 0.00 | 30 | 1014.3 |
| 20260505071833 | 56 | 271 | 0.9 | 3.5 | 0.00 | 0.00 | 0.00 | 30 | 1014.4 |
| 20260505071338 | 56 | 275 | 0.9 | 3.5 | 0.00 | 0.00 | 0.00 | 30 | 1014.3 |
| 20260505070843 | 56 | 313 | 0.9 | 5.2 | 0.00 | 0.00 | 0.00 | 30 | 1014.3 |
| 20260505070329 | 56 | 268 | 0.9 | 5.2 | 0.00 | 0.00 | 0.00 | 31 | 1014.5 |
| 20260505065842 | 56 | 252 | 0.0 | 0.0 | 0.00 | 0.00 | 0.00 | 32 | 1014.5 |
| 20260505065327 | 56 | 252 | 0.0 | 0.9 | 0.00 | 0.00 | 0.00 | 32 | 1014.5 |
| 20260505064832 | 57 | 252 | 0.0 | 0.9 | 0.00 | 0.00 | 0.00 | 32 | 1014.5 |
| 20260505064338 | 57 | 253 | 0.0 | 0.9 | 0.00 | 0.00 | 0.00 | 32 | 1014.5 |
| 20260505063825 | 57 | 253 | 0.0 | 1.7 | 0.00 | 0.00 | 0.00 | 32 | 1014.4 |
| 20260505063335 | 57 | 253 | 0.0 | 1.7 | 0.00 | 0.00 | 0.00 | 31 | 1014.4 |
| 20260505062840 | 58 | 253 | 0.0 | 0.0 | 0.00 | 0.00 | 0.00 | 31 | 1014.4 |
| 20260505062326 | 58 | 253 | 0.0 | 3.5 | 0.00 | 0.00 | 0.00 | 30 | 1014.4 |
| 20260505061832 | 58 | 253 | 0.9 | 3.5 | 0.00 | 0.00 | 0.00 | 30 | 1014.4 |
| 20260505061323 | 58 | 257 | 0.0 | 2.6 | 0.00 | 0.00 | 0.00 | 30 | 1014.4 |
| 20260505060828 | 58 | 257 | 0.0 | 6.1 | 0.00 | 0.00 | 0.00 | 30 | 1014.4 |
| 20260505060338 | 59 | 260 | 0.9 | 6.1 | 0.00 | 0.00 | 0.00 | 30 | 1014.5 |
| 20260505055843 | 59 | 263 | 1.7 | 5.2 | 0.00 | 0.00 | 0.00 | 30 | 1014.5 |
| 20260505055328 | 59 | 222 | 2.6 | 7.0 | 0.00 | 0.00 | 0.00 | 30 | 1014.5 |
| 20260505054833 | 59 | 245 | 1.7 | 7.0 | 0.00 | 0.00 | 0.00 | 30 | 1014.4 |
| 20260505054338 | 59 | 226 | 0.9 | 3.5 | 0.00 | 0.00 | 0.00 | 30 | 1014.2 |
| 20260505053824 | 59 | 240 | 0.9 | 4.3 | 0.00 | 0.00 | 0.00 | 30 | 1014.3 |
| 20260505053329 | 59 | 252 | 0.0 | 7.0 | 0.00 | 0.00 | 0.00 | 30 | 1014.2 |
| 20260505052835 | 59 | 259 | 1.7 | 7.0 | 0.00 | 0.00 | 0.00 | 30 | 1014.1 |
| 20260505052324 | 59 | 259 | 0.9 | 6.1 | 0.00 | 0.00 | 0.00 | 30 | 1014.3 |
| 20260505051829 | 59 | 231 | 0.9 | 6.1 | 0.00 | 0.00 | 0.00 | 31 | 1014.1 |
| 20260505051334 | 59 | 298 | 0.9 | 3.5 | 0.00 | 0.00 | 0.00 | 32 | 1014.2 |
| 20260505050840 | 59 | 299 | 0.0 | 4.3 | 0.00 | 0.00 | 0.00 | 31 | 1014.2 |
| 20260505050326 | 59 | 241 | 0.9 | 3.5 | 0.00 | 0.00 | 0.00 | 31 | 1014.3 |
| 20260505041332 | 58 | 325 | 0.0 | 0.0 | 0.00 | 0.00 | 0.00 | 30 | 1014.3 |
| 20260505040837 | 58 | 325 | 0.0 | 0.0 | 0.00 | 0.00 | 0.00 | 29 | 1014.3 |
| 20260505040342 | 59 | 325 | 0.0 | 0.0 | 0.00 | 0.00 | 0.00 | 29 | 1014.3 |